createdAt,value
2023-04-09T00:00:57.826Z,28.65
2023-04-09T00:03:32.666Z,30.25
2023-04-09T00:06:04.995Z,26.92
2023-04-09T00:08:40.173Z,29.15
2023-04-09T00:11:13.124Z,25.30
2023-04-09T00:13:42.196Z,26.88
2023-04-09T00:16:13.953Z,31.25
2023-04-09T00:18:50.972Z,33.72
2023-04-09T00:21:47.092Z,28.27
2023-04-09T00:24:15.260Z,29.77
2023-04-09T00:26:45.270Z,33.13
2023-04-09T00:29:14.244Z,31.08
2023-04-09T00:31:54.413Z,28.58
2023-04-09T00:34:23.351Z,32.40
2023-04-09T00:36:54.553Z,30.17
2023-04-09T00:39:24.559Z,33.63
2023-04-09T00:42:18.046Z,30.02
2023-04-09T00:44:59.834Z,30.55
2023-04-09T00:47:29.871Z,30.75
2023-04-09T00:49:59.243Z,29.40
2023-04-09T00:52:32.510Z,28.20
2023-04-09T00:55:02.111Z,30.73
2023-04-09T00:57:39.283Z,34.08
2023-04-09T01:00:09.192Z,31.13
2023-04-09T01:02:54.523Z,36.47
2023-04-09T01:05:41.776Z,30.48
2023-04-09T01:08:16.184Z,35.60
2023-04-09T01:10:57.985Z,30.77
2023-04-09T01:13:46.357Z,36.78
2023-04-09T01:16:20.892Z,33.10
2023-04-09T01:18:54.342Z,32.13
2023-04-09T01:21:28.885Z,34.50
2023-04-09T01:24:18.041Z,33.70
2023-04-09T01:27:03.109Z,34.22
2023-04-09T01:29:40.879Z,31.70
2023-04-09T01:32:18.615Z,32.28
2023-04-09T01:35:10.065Z,31.42
2023-04-09T01:37:39.732Z,33.20
2023-04-09T01:40:08.629Z,32.47
2023-04-09T01:42:38.094Z,31.77
2023-04-09T01:45:09.441Z,32.78
2023-04-09T01:47:47.442Z,33.25
2023-04-09T01:50:19.228Z,26.25
2023-04-09T01:52:47.465Z,34.25
2023-04-09T01:55:17.169Z,32.92
2023-04-09T01:57:46.973Z,30.20
2023-04-09T02:00:31.136Z,32.70
2023-04-09T02:03:18.598Z,30.92
2023-04-09T02:05:57.370Z,29.13
2023-04-09T02:08:27.013Z,32.42
2023-04-09T02:11:00.468Z,31.90
2023-04-09T02:13:30.300Z,32.17
2023-04-09T02:16:05.284Z,38.17
2023-04-09T02:18:52.209Z,33.88
2023-04-09T02:21:25.739Z,41.10
2023-04-09T02:23:57.740Z,33.95
2023-04-09T02:26:26.013Z,32.00
2023-04-09T02:28:59.968Z,29.33
2023-04-09T02:31:40.866Z,27.50
2023-04-09T02:34:12.641Z,31.88
2023-04-09T02:36:48.057Z,35.65
2023-04-09T02:43:03.897Z,29.88
2023-04-09T02:48:45.626Z,33.05
2023-04-09T02:54:33.835Z,30.35
2023-04-09T02:57:22.723Z,32.25
2023-04-09T02:59:52.296Z,32.17
2023-04-09T03:02:30.631Z,28.30
2023-04-09T03:05:06.589Z,28.00
2023-04-09T03:08:04.592Z,30.10
2023-04-09T03:14:04.322Z,30.40
2023-04-09T03:16:57.292Z,31.15
2023-04-09T03:22:28.470Z,29.08
2023-04-09T03:28:15.485Z,33.53
2023-04-09T03:31:02.958Z,33.22
2023-04-09T03:33:32.744Z,33.33
2023-04-09T03:39:20.658Z,34.88
2023-04-09T03:41:51.610Z,33.55
2023-04-09T03:44:20.491Z,39.83
2023-04-09T03:46:58.660Z,32.25
2023-04-09T03:49:40.348Z,33.88
2023-04-09T04:06:55.974Z,34.10
2023-04-09T04:09:24.296Z,38.80
2023-04-09T04:12:07.600Z,36.47
2023-04-09T04:14:36.291Z,33.13
2023-04-09T04:17:06.943Z,39.15
2023-04-09T04:19:35.425Z,36.55
2023-04-09T04:22:03.438Z,38.38
2023-04-09T04:24:38.589Z,40.88
2023-04-09T04:27:11.930Z,41.25
2023-04-09T04:29:40.440Z,41.88
2023-04-09T04:32:11.777Z,42.33
2023-04-09T04:34:39.826Z,44.10
2023-04-09T04:37:18.316Z,43.47
2023-04-09T04:39:53.759Z,39.63
2023-04-09T04:42:24.978Z,45.28
2023-04-09T04:45:01.223Z,41.75
2023-04-09T04:47:29.478Z,40.03
2023-04-09T04:49:59.988Z,41.72
2023-04-09T04:52:30.385Z,47.78
2023-04-09T04:55:13.571Z,43.30
2023-04-09T04:57:44.635Z,43.70
2023-04-09T05:00:27.212Z,43.38
2023-04-09T05:02:56.649Z,44.65
2023-04-09T05:05:49.921Z,42.35
2023-04-09T05:08:29.035Z,38.78
2023-04-09T05:11:06.365Z,40.45
2023-04-09T05:13:47.075Z,36.53
2023-04-09T05:16:33.435Z,37.05
2023-04-09T05:19:03.612Z,36.75
2023-04-09T05:21:31.563Z,36.33
2023-04-09T05:24:08.070Z,37.92
2023-04-09T05:26:36.151Z,39.42
2023-04-09T05:29:33.928Z,36.75
2023-04-09T05:32:02.170Z,33.72
2023-04-09T05:34:32.239Z,31.58
2023-04-09T05:37:01.398Z,33.80
2023-04-09T05:39:36.300Z,35.00
2023-04-09T05:42:07.482Z,31.73
2023-04-09T05:45:06.570Z,31.08
2023-04-09T05:47:34.974Z,29.10
2023-04-09T05:50:03.231Z,31.50
2023-04-09T05:52:41.553Z,34.63
2023-04-09T05:55:11.341Z,28.40
2023-04-09T05:57:56.760Z,32.33
2023-04-09T06:00:30.882Z,31.42
2023-04-09T06:03:11.357Z,39.92
2023-04-09T06:05:40.724Z,36.85
2023-04-09T06:08:12.943Z,39.03
2023-04-09T06:10:41.525Z,38.15
2023-04-09T06:13:09.744Z,39.30
2023-04-09T06:15:39.245Z,39.58
2023-04-09T06:18:19.753Z,46.13
2023-04-09T06:21:02.942Z,40.08
2023-04-09T06:23:30.940Z,38.75
2023-04-09T06:26:15.549Z,39.70
2023-04-09T06:28:50.947Z,37.42
2023-04-09T06:31:25.246Z,40.55
2023-04-09T06:33:58.564Z,42.33
2023-04-09T06:36:48.551Z,48.92
2023-04-09T06:39:16.781Z,44.28
2023-04-09T06:41:51.401Z,47.75
2023-04-09T06:44:25.892Z,50.58
2023-04-09T06:46:54.077Z,46.50
2023-04-09T06:49:32.605Z,47.90
2023-04-09T06:52:06.330Z,46.63
2023-04-09T06:54:44.210Z,42.88
2023-04-09T06:57:13.535Z,53.53
2023-04-09T06:59:59.803Z,46.58
2023-04-09T07:02:38.712Z,45.78
2023-04-09T07:05:07.082Z,48.95
2023-04-09T07:07:51.457Z,48.60
2023-04-09T07:10:23.407Z,48.85
2023-04-09T07:13:00.148Z,54.10
2023-04-09T07:15:28.222Z,45.22
2023-04-09T07:18:03.476Z,41.28
2023-04-09T07:20:31.984Z,42.42
2023-04-09T07:23:02.571Z,41.50
2023-04-09T07:25:33.912Z,42.10
2023-04-09T07:28:02.136Z,36.60
2023-04-09T07:30:31.320Z,40.88
2023-04-09T07:32:59.668Z,39.03
2023-04-09T07:35:29.620Z,35.45
2023-04-09T07:38:01.946Z,41.35
2023-04-09T07:40:35.725Z,40.92
2023-04-09T07:43:06.265Z,39.42
2023-04-09T07:45:35.615Z,38.43
2023-04-09T07:48:03.662Z,34.72
2023-04-09T07:50:33.926Z,39.63
2023-04-09T07:53:05.512Z,38.13
2023-04-09T07:55:35.764Z,40.72
2023-04-09T07:58:20.205Z,40.45
2023-04-09T08:00:50.087Z,41.35
2023-04-09T08:03:20.908Z,46.60
2023-04-09T08:05:54.838Z,37.35
2023-04-09T08:08:23.986Z,33.83
2023-04-09T08:10:52.266Z,37.35
2023-04-09T08:13:35.903Z,34.25
2023-04-09T08:16:04.268Z,34.03
2023-04-09T08:18:37.866Z,32.13
2023-04-09T08:21:15.170Z,31.95
2023-04-09T08:23:51.571Z,32.40
2023-04-09T08:26:20.611Z,35.80
2023-04-09T08:28:48.709Z,33.55
2023-04-09T08:31:17.900Z,32.75
2023-04-09T08:33:55.750Z,37.80
2023-04-09T08:36:27.817Z,42.78
2023-04-09T08:39:01.988Z,41.00
2023-04-09T08:41:47.121Z,38.40
2023-04-09T08:44:23.796Z,42.50
2023-04-09T08:46:52.537Z,44.72
2023-04-09T08:49:32.923Z,48.08
2023-04-09T08:52:08.319Z,49.67
2023-04-09T08:54:37.175Z,47.75
2023-04-09T08:57:10.487Z,42.67
2023-04-09T08:59:40.493Z,40.33
2023-04-09T09:02:12.556Z,40.45
2023-04-09T09:05:02.304Z,45.08
2023-04-09T09:07:32.704Z,43.70
2023-04-09T09:10:02.061Z,41.03
2023-04-09T09:12:47.843Z,35.30
2023-04-09T09:15:30.709Z,40.03
2023-04-09T09:18:01.061Z,41.17
2023-04-09T09:20:30.816Z,32.65
2023-04-09T09:23:04.386Z,36.78
2023-04-09T09:25:39.646Z,39.13
2023-04-09T09:28:12.819Z,36.13
2023-04-09T09:30:49.376Z,35.47
2023-04-09T09:33:34.913Z,33.50
2023-04-09T09:36:07.859Z,34.42
2023-04-09T09:38:38.889Z,35.83
2023-04-09T09:41:17.950Z,36.10
2023-04-09T09:44:01.379Z,37.42
2023-04-09T09:46:36.395Z,34.25
2023-04-09T09:49:04.597Z,35.03
2023-04-09T09:51:35.822Z,36.08
2023-04-09T09:54:04.445Z,39.50
2023-04-09T09:56:36.220Z,34.38
2023-04-09T09:59:35.814Z,32.47
2023-04-09T10:02:07.615Z,36.33
2023-04-09T10:04:43.169Z,38.65
2023-04-09T10:07:21.041Z,36.53
2023-04-09T10:09:56.417Z,39.08
2023-04-09T10:12:27.673Z,39.50
2023-04-09T10:15:06.492Z,39.72
2023-04-09T10:17:34.869Z,34.33
2023-04-09T10:20:28.755Z,41.05
2023-04-09T10:22:58.148Z,38.90
2023-04-09T10:25:26.258Z,37.92
2023-04-09T10:28:06.575Z,34.45
2023-04-09T10:30:40.827Z,34.42
2023-04-09T10:33:17.376Z,35.33
2023-04-09T10:35:50.737Z,38.75
2023-04-09T10:38:52.437Z,40.50
2023-04-09T10:43:51.772Z,40.20
2023-04-09T10:46:28.536Z,33.00
2023-04-09T10:49:29.447Z,35.88
2023-04-09T10:52:04.937Z,35.33
2023-04-09T10:54:41.075Z,39.45
2023-04-09T10:57:20.395Z,32.00
2023-04-09T11:00:04.850Z,34.13
2023-04-09T11:02:57.008Z,30.48
2023-04-09T11:08:45.783Z,36.65
2023-04-09T11:11:47.966Z,35.85
2023-04-09T11:14:34.840Z,33.15
2023-04-09T11:17:18.422Z,36.08
2023-04-09T11:19:52.302Z,33.40
2023-04-09T11:22:24.313Z,35.80
2023-04-09T11:24:55.250Z,34.83
2023-04-09T11:27:42.496Z,33.30
2023-04-09T11:30:23.543Z,37.05
2023-04-09T11:33:04.681Z,33.28
2023-04-09T11:35:35.805Z,37.30
2023-04-09T11:38:40.484Z,32.40
2023-04-09T11:41:13.980Z,31.45
2023-04-09T11:43:45.139Z,32.75
2023-04-09T11:46:18.161Z,34.28
2023-04-09T11:51:51.086Z,33.97
2023-04-09T11:54:24.167Z,34.55
2023-04-09T11:56:57.569Z,34.72
2023-04-09T11:59:53.773Z,34.58
2023-04-09T12:02:42.057Z,32.50
2023-04-09T12:05:28.851Z,32.85
2023-04-09T12:08:03.307Z,30.70
2023-04-09T12:11:06.469Z,34.55
2023-04-09T12:13:35.027Z,28.67
2023-04-09T12:16:06.758Z,28.55
2023-04-09T12:18:37.752Z,29.00
2023-04-09T12:21:23.264Z,27.60
2023-04-09T12:23:59.692Z,29.15
2023-04-09T12:26:46.761Z,25.48
2023-04-09T12:29:24.607Z,25.80
2023-04-09T12:32:02.522Z,27.05
2023-04-09T12:35:15.576Z,24.55
2023-04-09T12:37:52.019Z,28.60
2023-04-09T12:40:21.070Z,27.55
2023-04-09T12:43:08.469Z,30.33
2023-04-09T12:45:36.701Z,29.20
2023-04-09T12:48:04.824Z,28.70
2023-04-09T12:50:44.228Z,28.65
2023-04-09T12:53:18.690Z,26.35
2023-04-09T12:55:48.851Z,31.08
2023-04-09T12:58:17.060Z,28.20
2023-04-09T13:00:44.915Z,29.33
2023-04-09T13:03:18.240Z,24.50
2023-04-09T13:05:46.508Z,25.10
2023-04-09T13:08:22.464Z,25.88
2023-04-09T13:11:02.999Z,27.15
2023-04-09T13:13:32.991Z,28.95
2023-04-09T13:16:13.034Z,26.30
2023-04-09T13:18:42.256Z,25.73
2023-04-09T13:21:10.486Z,26.25
2023-04-09T13:23:42.958Z,27.17
2023-04-09T13:26:17.075Z,26.67
2023-04-09T13:28:55.648Z,27.30
2023-04-09T13:31:29.934Z,23.92
2023-04-09T13:34:02.440Z,25.13
2023-04-09T13:36:30.998Z,27.30
2023-04-09T13:39:27.082Z,26.85
2023-04-09T13:41:59.117Z,29.02
2023-04-09T13:44:28.776Z,28.10
2023-04-09T13:46:59.868Z,27.25
2023-04-09T13:49:29.840Z,25.08
2023-04-09T13:52:00.992Z,25.52
2023-04-09T13:54:29.133Z,28.08
2023-04-09T13:57:27.065Z,24.63
2023-04-09T13:59:59.557Z,26.67
2023-04-09T14:02:50.526Z,27.80
2023-04-09T14:05:24.711Z,29.63
2023-04-09T14:08:19.796Z,29.83
2023-04-09T14:10:52.346Z,27.75
2023-04-09T14:13:21.832Z,24.42
2023-04-09T14:16:02.567Z,24.73
2023-04-09T14:18:31.784Z,26.35
2023-04-09T14:21:01.895Z,25.77
2023-04-09T14:23:41.732Z,26.35
2023-04-09T14:26:16.075Z,32.90
2023-04-09T14:28:44.786Z,28.73
2023-04-09T14:31:15.936Z,25.40
2023-04-09T14:33:56.495Z,32.47
2023-04-09T14:36:37.693Z,38.92
2023-04-09T14:39:50.246Z,30.13
2023-04-09T14:42:32.211Z,30.45
2023-04-09T14:48:12.899Z,27.17
2023-04-09T14:50:53.220Z,29.00
2023-04-09T14:53:22.136Z,30.90
2023-04-09T14:55:53.118Z,30.25
2023-04-09T14:58:29.674Z,27.95
2023-04-09T15:01:08.119Z,32.13
2023-04-09T15:03:38.444Z,33.45
2023-04-09T15:06:13.927Z,28.70
2023-04-09T15:08:43.810Z,29.15
2023-04-09T15:11:23.995Z,30.65
2023-04-09T15:13:57.530Z,29.02
2023-04-09T15:16:27.335Z,27.33
2023-04-09T15:18:57.231Z,29.17
2023-04-09T15:22:11.378Z,32.10
2023-04-09T15:24:39.472Z,30.98
2023-04-09T15:27:26.769Z,26.70
2023-04-09T15:30:06.482Z,29.15
2023-04-09T15:32:45.705Z,25.88
2023-04-09T15:35:30.815Z,27.00
2023-04-09T15:38:36.339Z,28.90
2023-04-09T15:41:18.291Z,26.83
2023-04-09T15:44:02.668Z,24.70
2023-04-09T15:46:49.050Z,24.77
2023-04-09T15:49:30.517Z,24.63
2023-04-09T15:52:19.344Z,26.45
2023-04-09T15:54:55.606Z,25.95
2023-04-09T15:57:24.876Z,26.52
2023-04-09T15:59:59.954Z,27.17
2023-04-09T16:05:46.535Z,23.55
2023-04-09T16:08:24.748Z,26.80
2023-04-09T16:11:01.938Z,25.75
2023-04-09T16:13:49.225Z,27.70
2023-04-09T16:16:21.736Z,27.90
2023-04-09T16:19:07.037Z,30.85
2023-04-09T16:21:35.226Z,27.05
2023-04-09T16:24:05.312Z,26.13
2023-04-09T16:26:37.645Z,27.13
2023-04-09T16:29:23.956Z,25.33
2023-04-09T16:31:58.440Z,23.70
2023-04-09T16:34:34.173Z,25.58
2023-04-09T16:37:18.143Z,24.80
2023-04-09T16:39:56.122Z,27.60
2023-04-09T16:42:31.827Z,25.65
2023-04-09T16:45:19.344Z,26.63
2023-04-09T16:47:53.374Z,25.75
2023-04-09T16:50:33.433Z,28.95
2023-04-09T16:53:07.012Z,31.27
2023-04-09T16:55:37.322Z,27.48
2023-04-09T16:58:10.428Z,28.10
2023-04-09T17:00:49.970Z,27.88
2023-04-09T17:03:28.995Z,26.15
2023-04-09T17:05:58.867Z,26.25
2023-04-09T17:08:37.259Z,25.42
2023-04-09T17:11:05.215Z,27.05
2023-04-09T17:13:38.558Z,25.67
2023-04-09T17:16:19.453Z,27.00
2023-04-09T17:18:48.332Z,24.45
2023-04-09T17:21:29.730Z,26.90
2023-04-09T17:24:08.984Z,25.15
2023-04-09T17:26:37.845Z,25.00
2023-04-09T17:29:08.149Z,28.05
2023-04-09T17:31:36.459Z,26.00
2023-04-09T17:34:06.779Z,24.85
2023-04-09T17:36:41.098Z,28.27
2023-04-09T17:39:20.478Z,27.80
2023-04-09T17:41:58.033Z,28.50
2023-04-09T17:44:38.478Z,24.83
2023-04-09T17:47:19.328Z,25.27
2023-04-09T17:50:03.412Z,26.33
2023-04-09T17:52:38.474Z,26.38
2023-04-09T17:55:08.470Z,21.65
2023-04-09T17:57:37.259Z,25.17
2023-04-09T18:00:25.706Z,29.10
2023-04-09T18:02:55.200Z,26.48
2023-04-09T18:05:42.013Z,25.95
2023-04-09T18:08:15.237Z,23.77
2023-04-09T18:13:39.840Z,24.88
2023-04-09T18:16:13.595Z,25.20
2023-04-09T18:19:11.888Z,27.77
2023-04-09T18:21:50.063Z,23.98
2023-04-09T18:24:30.772Z,30.33
2023-04-09T18:26:59.070Z,27.30
2023-04-09T18:29:29.111Z,22.90
2023-04-09T18:32:01.309Z,23.17
2023-04-09T18:34:29.372Z,21.25
2023-04-09T18:36:57.550Z,25.25
2023-04-09T18:40:01.259Z,23.45
2023-04-09T18:42:31.718Z,24.10
2023-04-09T18:45:03.042Z,21.27
2023-04-09T18:47:41.772Z,22.00
2023-04-09T18:50:09.972Z,21.55
2023-04-09T18:52:40.295Z,22.48
2023-04-09T18:55:08.409Z,23.02
2023-04-09T18:57:43.688Z,28.95
2023-04-09T19:00:24.151Z,21.02
2023-04-09T19:03:22.839Z,28.55
2023-04-09T19:06:19.148Z,33.92
2023-04-09T19:09:09.160Z,37.35
2023-04-09T19:12:05.155Z,29.52
2023-04-09T19:14:42.066Z,34.58
2023-04-09T19:17:16.554Z,29.45
2023-04-09T19:19:51.660Z,28.23
2023-04-09T19:22:22.137Z,22.90
2023-04-09T19:24:50.254Z,19.00
2023-04-09T19:27:26.550Z,21.73
2023-04-09T19:29:55.430Z,20.70
2023-04-09T19:32:34.584Z,22.27
2023-04-09T19:35:08.876Z,19.45
2023-04-09T19:37:39.057Z,21.27
2023-04-09T19:40:19.290Z,28.77
2023-04-09T19:42:47.625Z,26.77
2023-04-09T19:45:21.561Z,29.60
2023-04-09T19:48:28.851Z,31.50
2023-04-09T19:51:01.545Z,34.47
2023-04-09T19:53:32.431Z,33.78
2023-04-09T19:56:10.653Z,29.60
2023-04-09T19:58:40.026Z,31.00
2023-04-09T20:01:14.475Z,30.35
2023-04-09T20:03:50.278Z,33.45
2023-04-09T20:06:18.940Z,31.75
2023-04-09T20:08:51.260Z,31.83
2023-04-09T20:11:29.965Z,29.30
2023-04-09T20:13:58.602Z,30.70
2023-04-09T20:16:30.909Z,26.13
2023-04-09T20:19:00.951Z,29.17
2023-04-09T20:21:36.954Z,27.38
2023-04-09T20:24:11.260Z,25.55
2023-04-09T20:26:46.341Z,31.70
2023-04-09T20:29:16.170Z,28.77
2023-04-09T20:31:44.977Z,26.15
2023-04-09T20:34:13.447Z,29.17
2023-04-09T20:36:45.812Z,30.60
2023-04-09T20:39:18.097Z,29.15
2023-04-09T20:41:46.352Z,25.90
2023-04-09T20:44:14.642Z,22.33
2023-04-09T20:46:42.705Z,24.98
2023-04-09T20:49:10.557Z,24.35
2023-04-09T20:51:43.708Z,23.38
2023-04-09T20:54:19.459Z,20.58
2023-04-09T20:56:47.937Z,23.25
2023-04-09T20:59:18.776Z,19.98
2023-04-09T21:01:59.715Z,27.60
2023-04-09T21:04:29.894Z,22.45
2023-04-09T21:06:58.228Z,32.28
2023-04-09T21:09:26.924Z,47.42
2023-04-09T21:11:59.129Z,32.10
2023-04-09T21:14:29.398Z,30.73
2023-04-09T21:17:00.405Z,26.27
2023-04-09T21:19:39.403Z,19.73
2023-04-09T21:22:09.921Z,19.60
2023-04-09T21:24:50.303Z,18.07
2023-04-09T21:27:42.933Z,20.13
2023-04-09T21:30:20.165Z,19.95
2023-04-09T21:32:51.514Z,22.67
2023-04-09T21:35:39.524Z,21.60
2023-04-09T21:38:11.996Z,26.60
2023-04-09T21:40:59.595Z,26.35
2023-04-09T21:43:47.668Z,28.23
2023-04-09T22:01:41.071Z,32.80
2023-04-09T22:04:27.799Z,30.27
2023-04-09T22:13:29.460Z,18.92
2023-04-09T22:16:18.713Z,18.25
2023-04-09T22:18:59.912Z,18.10
2023-04-09T22:21:30.254Z,15.98
2023-04-09T22:24:01.566Z,16.10
2023-04-09T22:26:32.739Z,17.98
2023-04-09T22:29:06.420Z,16.88
2023-04-09T22:31:46.352Z,17.02
2023-04-09T22:34:21.265Z,16.33
2023-04-09T22:36:51.229Z,17.17
2023-04-09T22:39:37.987Z,16.35
2023-04-09T22:42:06.521Z,14.68
2023-04-09T22:44:42.987Z,18.08
2023-04-09T22:47:20.334Z,21.98
2023-04-09T22:49:56.452Z,18.95
2023-04-09T22:52:24.639Z,19.90
2023-04-09T22:54:56.188Z,17.30
2023-04-09T22:57:28.399Z,20.20
2023-04-09T22:59:56.570Z,18.77
2023-04-09T23:02:25.656Z,21.15
2023-04-09T23:04:53.948Z,19.05
2023-04-09T23:07:22.818Z,19.50
2023-04-09T23:09:58.012Z,19.95
2023-04-09T23:12:27.847Z,21.42
2023-04-09T23:14:56.121Z,18.65
2023-04-09T23:17:43.168Z,18.35
2023-04-09T23:20:18.671Z,18.08
2023-04-09T23:22:52.101Z,16.33
2023-04-09T23:25:23.310Z,14.82
2023-04-09T23:28:23.184Z,16.33
2023-04-09T23:31:02.784Z,15.60
2023-04-09T23:33:35.062Z,15.38
2023-04-09T23:36:05.193Z,16.45
2023-04-09T23:38:34.464Z,18.05
2023-04-09T23:41:08.803Z,19.75
2023-04-09T23:43:38.119Z,20.27
2023-04-09T23:46:07.385Z,21.98
2023-04-09T23:48:37.516Z,23.73
2023-04-09T23:51:09.879Z,26.70
2023-04-09T23:53:41.860Z,26.30
2023-04-09T23:56:10.142Z,24.85
2023-04-09T23:58:42.446Z,23.13
